Time;durP1;ratioP1;P1;durP2;ratioP2;P2;SDS_P1;SDS_P2;PMS_P1;PMS_P2;Temp;Humidity;BMP_temperature;BMP_pressure;BME280_temperature;BME280_humidity;BME280_pressure;Samples;Min_cycle;Max_cycle;Signal;HPM_P1;HPM_P2
2021/12/01 00:01:10;;;;;;;3.85;1.95;;;;;;;4.02;79.64;99687.03;5061879;28;20483;-51
2021/12/01 00:03:35;;;;;;;1.77;1.67;;;;;;;4.02;79.96;99676.59;5065745;28;20480;-51
2021/12/01 00:06:02;;;;;;;1.70;1.60;;;;;;;4.02;79.55;99668.78;5066165;28;20128;-52
2021/12/01 00:08:28;;;;;;;3.08;1.77;;;;;;;4.02;79.71;99664.44;5062832;28;20028;-51
2021/12/01 00:10:53;;;;;;;3.40;1.88;;;;;;;4.02;80.26;99663.56;5066738;28;20032;-51
2021/12/01 00:13:20;;;;;;;2.10;1.60;;;;;;;4.02;80.53;99660.94;5064563;28;20029;-51
2021/12/01 00:15:51;;;;;;;1.95;1.50;;;;;;;4.04;80.00;99661.84;5064514;28;20013;-51
2021/12/01 00:18:16;;;;;;;2.60;1.80;;;;;;;4.01;79.70;99657.50;5065632;28;20488;-51
2021/12/01 00:20:42;;;;;;;2.55;1.98;;;;;;;4.01;79.48;99662.72;5063157;28;20289;-51
2021/12/01 00:23:23;;;;;;;1.52;1.40;;;;;;;4.04;79.95;99672.28;5068792;28;20028;-51
2021/12/01 00:25:49;;;;;;;1.83;1.67;;;;;;;4.03;80.10;99663.56;5065108;28;20116;-52
2021/12/01 00:28:14;;;;;;;2.42;1.85;;;;;;;4.03;80.39;99660.94;5066679;28;20115;-51
2021/12/01 00:30:40;;;;;;;2.35;1.40;;;;;;;4.03;80.19;99644.44;5066351;28;20077;-50
2021/12/01 00:33:08;;;;;;;2.47;1.90;;;;;;;4.03;80.16;99639.22;5071420;28;20058;-51
2021/12/01 00:35:33;;;;;;;1.70;1.60;;;;;;;4.04;79.77;99635.75;5072382;28;20025;-51
2021/12/01 00:37:59;;;;;;;1.95;1.75;;;;;;;4.03;79.98;99624.41;5068752;28;20062;-51
2021/12/01 00:40:25;;;;;;;2.15;1.25;;;;;;;4.02;79.89;99627.03;5071109;28;20029;-51
2021/12/01 00:42:50;;;;;;;3.55;1.58;;;;;;;4.04;80.06;99633.13;5066645;28;20035;-51
2021/12/01 00:45:18;;;;;;;2.28;2.00;;;;;;;4.03;80.22;99640.06;5070720;28;20032;-51
2021/12/01 00:47:49;;;;;;;2.78;1.40;;;;;;;4.04;79.83;99635.75;5071128;28;20029;-51
2021/12/01 00:50:23;;;;;;;2.47;2.08;;;;;;;4.05;80.13;99637.47;5070405;28;20033;-51
2021/12/01 00:52:53;;;;;;;2.17;1.80;;;;;;;4.06;79.83;99628.75;5065476;28;20032;-51
2021/12/01 00:55:19;;;;;;;1.70;1.48;;;;;;;4.05;79.60;99629.66;5065351;28;20115;-50
2021/12/01 00:57:50;;;;;;;3.33;1.67;;;;;;;4.04;80.27;99620.09;5067873;28;20128;-50
2021/12/01 01:00:17;;;;;;;3.63;1.63;;;;;;;4.05;80.15;99620.09;5064753;28;20029;-50
2021/12/01 01:02:42;;;;;;;1.67;1.55;;;;;;;4.05;78.89;99606.16;5050200;28;20554;-50
2021/12/01 01:05:10;;;;;;;2.53;1.48;;;;;;;4.05;79.27;99600.94;5069223;28;20059;-50
2021/12/01 01:07:35;;;;;;;1.60;1.50;;;;;;;4.06;79.74;99595.72;5064359;28;20028;-50
2021/12/01 01:10:15;;;;;;;1.67;1.50;;;;;;;4.06;80.17;99598.34;5043709;28;20570;-50
2021/12/01 01:18:08;;;;;;;2.75;1.55;;;;;;;4.05;79.22;99582.66;5067056;28;20560;-50
2021/12/01 01:20:35;;;;;;;2.13;1.55;;;;;;;4.06;79.59;99576.56;5061337;28;20036;-50
2021/12/01 01:23:01;;;;;;;1.88;1.77;;;;;;;4.07;79.01;99578.34;5066147;28;20047;-50
2021/12/01 01:25:27;;;;;;;1.50;1.40;;;;;;;4.05;78.90;99572.22;5044621;28;20054;-50
2021/12/01 01:27:52;;;;;;;2.70;1.65;;;;;;;4.05;80.18;99554.84;5063364;28;20028;-50
2021/12/01 01:30:18;;;;;;;1.50;1.40;;;;;;;4.05;79.22;99549.63;5068941;28;20380;-51
2021/12/01 01:32:43;;;;;;;2.45;1.52;;;;;;;4.07;80.00;99541.81;5066054;28;20032;-50
2021/12/01 01:35:09;;;;;;;1.60;1.50;;;;;;;4.08;79.75;99535.72;5066132;28;20032;-50
2021/12/01 01:37:34;;;;;;;1.52;1.38;;;;;;;4.08;78.85;99533.09;5066732;28;20048;-50
2021/12/01 01:39:59;;;;;;;1.95;1.60;;;;;;;4.08;79.82;99530.50;5061684;28;20067;-50
2021/12/01 01:42:25;;;;;;;2.70;1.50;;;;;;;4.07;79.19;99536.59;5061356;28;20489;-50
2021/12/01 01:44:50;;;;;;;1.92;1.70;;;;;;;4.07;79.68;99527.00;5065562;28;20090;-50
2021/12/01 01:47:15;;;;;;;2.75;1.50;;;;;;;4.07;79.74;99531.38;5062933;28;20021;-50
2021/12/01 01:49:51;;;;;;;2.28;1.80;;;;;;;4.08;79.56;99533.97;5067105;28;20086;-50
2021/12/01 01:52:17;;;;;;;2.03;1.83;;;;;;;4.08;79.20;99513.09;5066231;28;20044;-50
2021/12/01 01:54:42;;;;;;;2.72;1.70;;;;;;;4.08;79.80;99512.22;5068243;28;20025;-50
2021/12/01 01:57:07;;;;;;;1.83;1.73;;;;;;;4.08;79.49;99500.06;5063480;28;20025;-50
2021/12/01 01:59:33;;;;;;;2.08;1.40;;;;;;;4.09;79.05;99498.28;5060842;28;20091;-50
2021/12/01 02:01:59;;;;;;;2.25;1.73;;;;;;;4.09;79.17;99493.06;5048620;28;20467;-50
2021/12/01 02:04:26;;;;;;;1.77;1.63;;;;;;;4.08;79.67;99487.00;5064742;28;20025;-50
2021/12/01 02:06:52;;;;;;;2.28;1.77;;;;;;;4.10;80.10;99487.84;5065129;28;20115;-50
2021/12/01 02:09:22;;;;;;;1.50;1.40;;;;;;;4.09;79.90;99474.81;5065142;28;20344;-50
2021/12/01 02:11:48;;;;;;;3.23;1.90;;;;;;;4.12;79.63;99472.19;5067357;28;20070;-50
2021/12/01 02:14:16;;;;;;;2.65;2.17;;;;;;;4.10;79.76;99461.75;5061311;28;20024;-50
2021/12/01 02:16:41;;;;;;;2.10;1.63;;;;;;;4.08;80.10;99460.91;5057811;28;20021;-50
2021/12/01 02:19:06;;;;;;;2.25;1.83;;;;;;;4.08;80.36;99441.75;5060482;28;20028;-50
2021/12/01 02:21:32;;;;;;;2.45;1.80;;;;;;;4.10;79.93;99440.88;5064443;28;20025;-50
2021/12/01 02:24:09;;;;;;;1.80;1.70;;;;;;;4.13;80.43;99431.31;5063556;28;20033;-50
2021/12/01 02:26:41;;;;;;;1.92;1.77;;;;;;;4.11;79.72;99426.09;5044496;28;20028;-50
2021/12/01 02:29:07;;;;;;;;;;;;;;;4.12;80.30;99425.22;5062579;28;20523;-49
2021/12/01 02:31:35;;;;;;;1.85;1.75;;;;;;;4.09;80.10;99423.50;5063410;28;20269;-50
2021/12/01 02:34:08;;;;;;;2.30;1.95;;;;;;;4.10;79.77;99417.41;5062115;28;20118;-50
2021/12/01 02:36:34;;;;;;;4.60;2.38;;;;;;;4.10;80.81;99417.41;5046134;28;20043;-50
2021/12/01 02:39:01;;;;;;;2.50;2.17;;;;;;;4.10;79.80;99406.97;5042474;28;20016;-50
2021/12/01 02:41:28;;;;;;;2.47;2.00;;;;;;;4.11;79.99;99398.25;5061862;28;20028;-50
2021/12/01 02:43:54;;;;;;;2.67;2.47;;;;;;;4.12;79.57;99393.91;5063386;28;20032;-50
2021/12/01 02:46:20;;;;;;;3.08;2.28;;;;;;;4.13;80.69;99389.56;5058720;28;20070;-50
2021/12/01 02:48:46;;;;;;;2.17;1.95;;;;;;;4.12;80.01;99388.69;5056000;28;20094;-51
2021/12/01 02:51:24;;;;;;;3.80;2.03;;;;;;;4.13;80.65;99379.97;5061276;28;20472;-50
2021/12/01 02:53:56;;;;;;;2.85;2.40;;;;;;;4.14;80.33;99375.63;5060614;28;20016;-50
2021/12/01 02:56:24;;;;;;;4.07;2.53;;;;;;;4.15;80.58;99364.31;5063014;28;20046;-50
2021/12/01 02:58:52;;;;;;;3.78;2.60;;;;;;;4.14;80.36;99354.75;5063028;28;20024;-51
2021/12/01 03:01:21;;;;;;;3.47;1.85;;;;;;;4.15;81.12;99352.16;5061435;28;20040;-51
2021/12/01 03:04:01;;;;;;;3.20;2.20;;;;;;;4.14;80.66;99337.38;5059884;28;20083;-51
2021/12/01 03:06:30;;;;;;;2.88;2.50;;;;;;;4.14;80.22;99336.50;5059477;28;20057;-50
2021/12/01 03:08:57;;;;;;;2.40;2.20;;;;;;;4.15;80.72;99330.41;5059133;28;20025;-50
2021/12/01 03:11:23;;;;;;;2.88;2.13;;;;;;;4.15;80.97;99319.94;5062748;28;20033;-51
2021/12/01 03:13:48;;;;;;;3.00;2.67;;;;;;;4.15;81.27;99310.41;5057529;28;20016;-50
2021/12/01 03:16:15;;;;;;;2.58;2.30;;;;;;;4.16;81.00;99319.94;5062548;28;20545;-51
2021/12/01 03:18:41;;;;;;;2.65;2.45;;;;;;;4.15;80.52;99305.19;5056257;28;20048;-51
2021/12/01 03:21:06;;;;;;;4.78;2.90;;;;;;;4.15;80.95;99299.06;5064907;28;20020;-51
2021/12/01 03:23:31;;;;;;;2.60;2.40;;;;;;;4.16;80.66;99288.63;5062464;28;20078;-51
2021/12/01 03:25:57;;;;;;;2.55;2.35;;;;;;;4.16;81.25;99288.63;5058081;28;20055;-51
2021/12/01 03:28:22;;;;;;;2.72;2.20;;;;;;;4.15;80.91;99278.19;5056987;28;20416;-51
2021/12/01 03:30:48;;;;;;;2.00;1.80;;;;;;;4.16;80.74;99278.19;5057190;28;20480;-51
2021/12/01 03:33:19;;;;;;;2.50;2.30;;;;;;;4.17;81.22;99272.09;5059932;28;20408;-51
2021/12/01 03:35:47;;;;;;;3.17;2.45;;;;;;;4.17;81.04;99266.88;5042502;28;20021;-51
2021/12/01 03:38:13;;;;;;;2.55;2.35;;;;;;;4.16;80.14;99265.16;5064293;28;20024;-50
2021/12/01 03:40:45;;;;;;;3.15;2.85;;;;;;;4.18;81.66;99258.19;5063734;28;20047;-50
2021/12/01 03:43:10;;;;;;;2.42;2.22;;;;;;;4.18;81.28;99254.69;5066762;28;20507;-50
2021/12/01 03:45:36;;;;;;;2.40;2.20;;;;;;;4.16;81.31;99252.09;5063282;28;20143;-50
2021/12/01 03:48:02;;;;;;;2.25;2.05;;;;;;;4.17;80.89;99239.94;5058302;28;20032;-49
2021/12/01 03:50:28;;;;;;;3.38;2.38;;;;;;;4.18;81.74;99242.53;5055428;28;20391;-50
2021/12/01 03:52:53;;;;;;;2.33;2.13;;;;;;;4.17;81.07;99232.94;5060690;28;20104;-50
2021/12/01 03:55:18;;;;;;;2.08;1.80;;;;;;;4.18;80.25;99234.69;5060930;28;20480;-50
2021/12/01 03:57:44;;;;;;;2.33;1.98;;;;;;;4.18;81.06;99226.00;5056978;28;20079;-50
2021/12/01 04:00:12;;;;;;;2.63;2.20;;;;;;;4.18;80.83;99221.66;5058273;28;20032;-50
2021/12/01 04:02:39;;;;;;;2.30;2.10;;;;;;;4.18;81.11;99223.38;5043332;28;20032;-50
2021/12/01 04:05:05;;;;;;;2.05;1.95;;;;;;;4.20;80.99;99219.88;5046488;28;20067;-50
2021/12/01 04:07:32;;;;;;;2.10;1.90;;;;;;;4.19;80.61;99207.72;5053844;28;20392;-50
2021/12/01 04:09:58;;;;;;;2.30;2.10;;;;;;;4.20;81.17;99212.06;5070689;28;20028;-48
2021/12/01 04:12:24;;;;;;;3.63;1.95;;;;;;;4.18;81.04;99202.50;5068593;28;20055;-48
2021/12/01 04:14:49;;;;;;;2.53;1.92;;;;;;;4.20;80.63;99204.22;5072212;28;20100;-55
2021/12/01 04:17:14;;;;;;;2.35;2.15;;;;;;;4.20;81.47;99193.78;5072328;28;20086;-48
2021/12/01 04:19:40;;;;;;;1.83;1.73;;;;;;;4.21;81.84;99186.84;5071807;28;20146;-47
2021/12/01 04:22:05;;;;;;;1.98;1.80;;;;;;;4.21;81.10;99184.22;5069066;28;20074;-48
2021/12/01 04:24:31;;;;;;;2.42;2.22;;;;;;;4.20;81.32;99191.19;5068921;28;20100;-50
2021/12/01 04:26:57;;;;;;;2.20;2.10;;;;;;;4.21;80.74;99186.84;5060837;28;20047;-50
2021/12/01 04:29:22;;;;;;;2.17;1.98;;;;;;;4.22;81.67;99191.16;5060503;28;20032;-49
2021/12/01 04:31:48;;;;;;;2.20;2.00;;;;;;;4.23;81.42;99180.72;5051674;28;20024;-48
2021/12/01 04:34:14;;;;;;;2.30;1.90;;;;;;;4.22;82.09;99176.38;5067189;28;20451;-49
2021/12/01 04:36:42;;;;;;;2.08;1.92;;;;;;;4.21;80.43;99169.41;5068830;28;20039;-49
2021/12/01 04:39:11;;;;;;;2.38;1.80;;;;;;;4.22;81.66;99162.47;5071026;28;20033;-49
2021/12/01 04:41:47;;;;;;;2.10;2.00;;;;;;;4.22;81.67;99155.50;5068096;28;20398;-51
2021/12/01 04:44:14;;;;;;;2.00;1.80;;;;;;;4.22;81.22;99142.47;5068049;28;20155;-49
2021/12/01 04:46:43;;;;;;;1.90;1.60;;;;;;;4.23;81.35;99135.47;5068107;28;20103;-47
2021/12/01 04:49:10;;;;;;;1.60;1.50;;;;;;;4.22;81.33;99134.63;5065651;28;20028;-50
2021/12/01 04:51:35;;;;;;;1.88;1.77;;;;;;;4.22;81.58;99126.78;5048811;28;20085;-49
2021/12/01 04:54:03;;;;;;;1.65;1.55;;;;;;;4.22;81.48;99126.78;5068257;28;20028;-57
2021/12/01 04:56:28;;;;;;;1.67;1.58;;;;;;;4.23;81.37;99136.34;5039924;28;20116;-49
2021/12/01 04:58:53;;;;;;;1.70;1.60;;;;;;;4.24;81.18;99130.25;5043826;28;20139;-49
2021/12/01 05:01:19;;;;;;;1.67;1.58;;;;;;;4.24;81.27;99135.47;5031429;28;20031;-49
2021/12/01 05:03:44;;;;;;;1.50;1.40;;;;;;;4.24;81.26;99138.06;5061113;28;20052;-48
2021/12/01 05:06:12;;;;;;;1.65;1.52;;;;;;;4.25;81.65;99138.94;5066524;28;20056;-49
2021/12/01 05:08:38;;;;;;;1.33;1.23;;;;;;;4.23;80.92;99123.31;5064100;28;20395;-48
2021/12/01 05:11:03;;;;;;;1.60;1.50;;;;;;;4.26;81.17;99113.72;5058456;28;20052;-51
2021/12/01 05:13:29;;;;;;;2.13;1.50;;;;;;;4.24;81.24;99106.75;5065623;28;20028;-50
2021/12/01 05:15:54;;;;;;;1.50;1.40;;;;;;;4.25;80.86;99107.63;5064238;28;20542;-50
2021/12/01 05:18:20;;;;;;;1.10;1.10;;;;;;;4.26;81.70;99109.34;5058656;28;20025;-50
2021/12/01 05:20:45;;;;;;;1.40;1.23;;;;;;;4.26;81.18;99104.13;5048613;28;20056;-49
2021/12/01 05:23:15;;;;;;;1.10;1.10;;;;;;;4.26;81.39;99098.06;5065161;28;20082;-50
2021/12/01 05:25:44;;;;;;;1.30;1.20;;;;;;;4.28;81.32;99088.47;5062382;28;20020;-51
2021/12/01 05:28:09;;;;;;;1.10;1.10;;;;;;;4.27;81.24;99074.53;5064068;28;20043;-49
2021/12/01 05:30:34;;;;;;;1.33;1.23;;;;;;;4.28;81.43;99071.06;5068873;28;20423;-52
2021/12/01 05:33:09;;;;;;;1.35;1.25;;;;;;;4.28;81.33;99062.38;5043109;28;20020;-50
2021/12/01 05:35:35;;;;;;;1.30;1.20;;;;;;;4.27;81.14;99058.03;5062693;28;20036;-50
2021/12/01 05:38:01;;;;;;;1.00;1.00;;;;;;;4.27;81.72;99052.81;5062366;28;20024;-51
2021/12/01 05:40:27;;;;;;;1.27;1.17;;;;;;;4.28;81.92;99052.78;5059447;28;20033;-50
2021/12/01 05:42:52;;;;;;;1.15;1.10;;;;;;;4.30;81.11;99060.63;5063198;28;20052;-50
2021/12/01 05:45:17;;;;;;;1.40;1.30;;;;;;;4.28;81.47;99046.69;5062061;28;20024;-50
2021/12/01 05:47:44;;;;;;;1.25;1.15;;;;;;;4.29;81.81;99040.59;5066260;28;20029;-50
2021/12/01 05:50:09;;;;;;;3.72;1.38;;;;;;;4.30;81.16;99048.41;5063875;28;20428;-50
2021/12/01 05:52:35;;;;;;;2.25;0.95;;;;;;;4.31;82.02;99038.84;5052897;28;20051;-50
2021/12/01 05:55:00;;;;;;;1.00;1.00;;;;;;;4.32;81.69;99037.97;5067331;28;20503;-50
2021/12/01 05:57:26;;;;;;;1.10;1.00;;;;;;;4.31;81.34;99047.56;5064644;28;20033;-50
2021/12/01 05:59:51;;;;;;;0.90;0.90;;;;;;;4.31;81.66;99046.69;5034045;28;20069;-49
2021/12/01 06:02:16;;;;;;;1.23;1.13;;;;;;;4.31;81.65;99047.56;5064937;28;20388;-51
2021/12/01 06:04:42;;;;;;;1.38;1.27;;;;;;;4.32;81.40;99035.34;5063589;28;20037;-51
2021/12/01 06:07:07;;;;;;;1.00;1.00;;;;;;;4.32;81.76;99035.34;5067714;28;20025;-52
2021/12/01 06:09:33;;;;;;;1.10;1.00;;;;;;;4.32;81.82;99035.34;5068727;28;20025;-50
2021/12/01 06:11:59;;;;;;;1.17;0.98;;;;;;;4.32;81.51;99024.91;5066006;28;20028;-49
2021/12/01 06:14:25;;;;;;;1.00;1.00;;;;;;;4.33;81.95;99021.41;5049326;28;20036;-49
2021/12/01 06:16:50;;;;;;;1.33;1.23;;;;;;;4.32;81.95;99030.13;5064223;28;20400;-57
2021/12/01 06:19:16;;;;;;;1.10;1.10;;;;;;;4.32;81.94;99025.78;5046606;28;20025;-50
2021/12/01 06:21:41;;;;;;;1.45;1.20;;;;;;;4.34;82.52;99033.59;5062893;28;20054;-54
2021/12/01 06:24:06;;;;;;;1.20;1.10;;;;;;;4.33;81.66;99034.47;5060573;28;20017;-49
2021/12/01 06:26:32;;;;;;;1.02;1.02;;;;;;;4.34;81.43;99039.66;5041941;28;20040;-57
2021/12/01 06:28:57;;;;;;;1.05;1.05;;;;;;;4.35;81.76;99040.53;5043255;28;20784;-48
2021/12/01 06:31:22;;;;;;;1.20;1.10;;;;;;;4.35;82.25;99040.53;5065813;28;20039;-51
2021/12/01 06:33:47;;;;;;;1.60;1.17;;;;;;;4.35;81.84;99032.72;5066314;28;20029;-49
2021/12/01 06:36:13;;;;;;;1.05;1.05;;;;;;;4.34;81.71;99044.88;5045118;28;20082;-49
2021/12/01 06:38:39;;;;;;;0.90;0.90;;;;;;;4.35;81.55;99032.72;5045834;28;20075;-50
2021/12/01 06:41:06;;;;;;;1.13;0.93;;;;;;;4.35;81.17;99033.59;5063773;28;20033;-49
2021/12/01 06:43:31;;;;;;;0.80;0.80;;;;;;;4.35;82.04;99024.88;5033411;28;20031;-51
2021/12/01 06:45:57;;;;;;;1.40;1.30;;;;;;;4.35;81.54;99024.88;5069773;28;20520;-51
2021/12/01 06:48:22;;;;;;;1.20;1.10;;;;;;;4.36;81.75;99011.81;5068581;28;20028;-49
2021/12/01 06:50:48;;;;;;;0.95;0.95;;;;;;;4.35;81.26;99010.09;5063304;28;20032;-49
2021/12/01 06:53:13;;;;;;;1.08;1.08;;;;;;;4.36;81.90;99010.94;5066889;28;20476;-50
2021/12/01 06:55:38;;;;;;;1.30;1.20;;;;;;;4.38;81.41;98988.31;5065630;28;20792;-50
2021/12/01 06:58:04;;;;;;;1.35;1.10;;;;;;;4.38;81.72;98993.53;5065100;28;20103;-48
2021/12/01 07:00:30;;;;;;;1.13;1.10;;;;;;;4.38;81.12;98972.66;5058762;28;20024;-50
2021/12/01 07:02:56;;;;;;;1.00;1.00;;;;;;;4.39;81.43;98979.59;5059895;28;20051;-51
2021/12/01 07:05:22;;;;;;;1.35;1.25;;;;;;;4.39;81.53;98968.28;5062480;28;20032;-50
2021/12/01 07:07:48;;;;;;;1.00;1.00;;;;;;;4.34;81.55;98970.97;5059674;28;20078;-49
2021/12/01 07:10:14;;;;;;;1.17;1.08;;;;;;;4.40;81.50;98977.84;5060767;28;20104;-50
2021/12/01 07:12:40;;;;;;;1.10;1.10;;;;;;;4.40;81.35;98970.88;5058593;28;20026;-50
2021/12/01 07:15:11;;;;;;;1.52;1.42;;;;;;;4.41;81.68;98962.19;5063599;28;20024;-50
2021/12/01 07:17:36;;;;;;;1.50;1.40;;;;;;;4.41;81.32;98956.97;5048935;28;20027;-52
2021/12/01 07:20:03;;;;;;;1.30;1.20;;;;;;;4.42;81.52;98939.53;5064357;28;20645;-54
2021/12/01 07:22:28;;;;;;;1.15;1.15;;;;;;;4.42;81.68;98921.25;5062173;28;20039;-47
2021/12/01 07:24:54;;;;;;;1.55;1.45;;;;;;;4.44;81.06;98914.28;5065503;28;20726;-48
2021/12/01 07:27:19;;;;;;;1.50;1.40;;;;;;;4.40;81.28;98909.97;5061042;28;20032;-49
2021/12/01 07:29:45;;;;;;;1.73;1.63;;;;;;;4.43;82.07;98915.16;5060520;28;20022;-48
2021/12/01 07:32:11;;;;;;;1.85;1.75;;;;;;;4.43;81.80;98926.47;5058217;28;20036;-47
2021/12/01 07:34:43;;;;;;;1.42;1.33;;;;;;;4.43;82.03;98923.00;5059081;28;20392;-47
2021/12/01 07:37:13;;;;;;;1.60;1.50;;;;;;;4.44;81.48;98917.72;5043713;28;20507;-47
2021/12/01 07:39:39;;;;;;;1.52;1.42;;;;;;;4.42;81.77;98901.25;5062659;28;20036;-49
2021/12/01 07:42:05;;;;;;;1.30;1.25;;;;;;;4.39;80.79;98895.19;5067577;28;20029;-49
2021/12/01 07:44:33;;;;;;;1.55;1.45;;;;;;;4.43;81.79;98895.13;5067547;28;20033;-49
2021/12/01 07:46:59;;;;;;;1.73;1.63;;;;;;;4.42;81.44;98896.03;5061528;28;20029;-51
2021/12/01 07:49:24;;;;;;;1.70;1.60;;;;;;;4.44;81.73;98885.56;5062123;28;21277;-49
2021/12/01 07:51:56;;;;;;;1.80;1.63;;;;;;;4.43;81.61;98876.84;5060969;28;20025;-47
2021/12/01 07:54:21;;;;;;;1.60;1.50;;;;;;;4.43;81.44;98870.78;5061703;28;20056;-48
2021/12/01 07:56:46;;;;;;;1.95;1.63;;;;;;;4.43;81.37;98866.41;5066349;28;20055;-50
2021/12/01 07:59:15;;;;;;;1.60;1.50;;;;;;;4.44;80.84;98867.28;5063407;28;20029;-51
2021/12/01 08:01:42;;;;;;;1.55;1.45;;;;;;;4.43;82.07;98871.63;5046804;28;20027;-50
2021/12/01 08:04:07;;;;;;;1.58;1.42;;;;;;;4.43;81.72;98869.03;5064695;28;20025;-49
2021/12/01 08:06:33;;;;;;;1.67;1.58;;;;;;;4.43;81.53;98879.47;5065258;28;20078;-49
2021/12/01 08:09:07;;;;;;;1.65;1.55;;;;;;;4.43;81.37;98874.25;5070621;28;20024;-50
2021/12/01 08:11:33;;;;;;;1.60;1.50;;;;;;;4.44;80.83;98873.34;5055172;28;20032;-50
2021/12/01 08:14:02;;;;;;;1.75;1.60;;;;;;;4.45;81.09;98885.53;5069392;28;20033;-51
2021/12/01 08:16:27;;;;;;;1.80;1.70;;;;;;;4.45;81.63;98877.72;5067771;28;20028;-48
2021/12/01 08:18:55;;;;;;;1.60;1.50;;;;;;;4.46;82.00;98865.50;5070093;28;20602;-47
2021/12/01 08:21:27;;;;;;;2.00;1.90;;;;;;;4.46;81.01;98850.72;5053530;28;20388;-48
2021/12/01 08:23:52;;;;;;;;;;;;;;;4.45;81.73;98866.41;5044825;28;20031;-48
2021/12/01 08:26:20;;;;;;;1.50;1.40;;;;;;;4.43;81.49;98861.19;5066166;28;19924;-48
2021/12/01 08:28:47;;;;;;;1.52;1.42;;;;;;;4.43;80.94;98871.63;5064511;28;20025;-51
2021/12/01 08:31:16;;;;;;;1.63;1.52;;;;;;;4.44;81.46;98856.84;5070967;28;20111;-48
2021/12/01 08:33:43;;;;;;;1.50;1.40;;;;;;;4.44;82.18;98852.47;5070281;28;20772;-48
2021/12/01 08:36:10;;;;;;;1.90;1.80;;;;;;;4.45;81.72;98854.22;5066256;28;20517;-49
2021/12/01 08:38:41;;;;;;;1.65;1.55;;;;;;;4.45;81.71;98849.00;5053646;28;20048;-47
2021/12/01 08:41:07;;;;;;;1.73;1.58;;;;;;;4.47;81.11;98851.59;5069962;28;20036;-49
2021/12/01 08:43:34;;;;;;;1.88;1.77;;;;;;;4.47;81.18;98847.22;5066940;28;20069;-48
2021/12/01 08:46:00;;;;;;;1.90;1.80;;;;;;;4.46;81.19;98845.50;5044996;28;20372;-49
2021/12/01 08:48:25;;;;;;;1.60;1.50;;;;;;;4.46;81.74;98827.22;5069597;28;20024;-49
2021/12/01 08:50:50;;;;;;;1.90;1.80;;;;;;;4.48;82.29;98825.47;5068275;28;20044;-49
2021/12/01 08:53:16;;;;;;;1.80;1.70;;;;;;;4.47;82.14;98810.66;5065476;28;20047;-49
2021/12/01 08:55:42;;;;;;;1.80;1.70;;;;;;;4.50;81.76;98814.97;5069172;28;20028;-53
2021/12/01 08:58:09;;;;;;;2.10;1.88;;;;;;;4.48;80.95;98807.19;5065896;28;20032;-49
2021/12/01 09:00:42;;;;;;;1.98;1.88;;;;;;;4.51;82.15;98815.84;5069484;28;20070;-48
2021/12/01 09:03:08;;;;;;;2.00;1.80;;;;;;;4.49;81.32;98816.75;5046938;28;20025;-50
2021/12/01 09:05:33;;;;;;;1.73;1.63;;;;;;;4.50;82.01;98814.97;5063368;28;20078;-49
2021/12/01 09:08:02;;;;;;;2.53;2.33;;;;;;;4.48;81.38;98812.41;5049328;28;20032;-48
2021/12/01 09:10:27;;;;;;;2.05;1.92;;;;;;;4.52;81.90;98812.34;5069129;28;20016;-47
2021/12/01 09:12:52;;;;;;;2.25;2.05;;;;;;;4.51;81.24;98794.97;5068833;28;20024;-49
2021/12/01 09:15:18;;;;;;;2.08;1.98;;;;;;;4.51;82.16;98787.13;5066769;28;20024;-49
2021/12/01 09:17:44;;;;;;;2.30;2.10;;;;;;;4.50;81.37;98778.41;5064218;28;20078;-48
2021/12/01 09:20:10;;;;;;;2.08;1.98;;;;;;;4.48;81.39;98760.19;5046738;28;20043;-47
2021/12/01 09:22:35;;;;;;;2.03;1.92;;;;;;;4.52;81.53;98767.97;5063009;28;20074;-48
2021/12/01 09:25:01;;;;;;;1.98;1.83;;;;;;;4.52;81.73;98758.38;5065286;28;20507;-48
2021/12/01 09:27:26;;;;;;;2.38;2.08;;;;;;;4.52;81.82;98755.78;5068335;28;20024;-48
2021/12/01 09:29:53;;;;;;;1.98;1.88;;;;;;;4.52;81.40;98747.06;5068105;28;20024;-48
2021/12/01 09:32:18;;;;;;;1.90;1.80;;;;;;;4.52;81.62;98734.88;5070916;28;20480;-49
2021/12/01 09:34:44;;;;;;;1.90;1.70;;;;;;;4.53;81.73;98740.97;5069606;28;20039;-48
2021/12/01 09:37:10;;;;;;;2.00;1.90;;;;;;;4.52;81.45;98720.97;5069704;28;20028;-51
2021/12/01 09:39:35;;;;;;;2.00;1.90;;;;;;;4.54;80.90;98727.03;5052259;28;20446;-49
2021/12/01 09:42:01;;;;;;;1.85;1.73;;;;;;;4.54;81.14;98727.03;5070594;28;20063;-52
2021/12/01 09:44:27;;;;;;;2.30;2.10;;;;;;;4.54;81.22;98727.03;5063688;28;20112;-48
2021/12/01 09:46:52;;;;;;;2.10;2.00;;;;;;;4.49;81.62;98716.66;5049425;28;20028;-47
2021/12/01 09:49:18;;;;;;;1.80;1.70;;;;;;;4.54;81.47;98721.81;5065593;28;20035;-48
2021/12/01 09:51:43;;;;;;;2.20;2.00;;;;;;;4.54;81.30;98716.59;5050862;28;20020;-48
2021/12/01 09:54:09;;;;;;;2.25;2.05;;;;;;;4.55;82.38;98715.69;5067897;28;20024;-47
2021/12/01 09:56:34;;;;;;;1.90;1.80;;;;;;;4.56;81.59;98714.81;5066417;28;20485;-49
2021/12/01 09:59:00;;;;;;;2.08;1.90;;;;;;;4.56;81.46;98704.34;5061994;28;20090;-50
2021/12/01 10:01:27;;;;;;;2.20;2.00;;;;;;;4.57;82.18;98685.22;5046973;28;20022;-50
2021/12/01 10:03:53;;;;;;;1.75;1.65;;;;;;;4.57;81.77;98687.81;5068996;28;20034;-48
2021/12/01 10:06:23;;;;;;;2.15;1.83;;;;;;;4.57;81.54;98686.06;5063475;28;20036;-51
2021/12/01 10:08:49;;;;;;;1.90;1.80;;;;;;;4.57;81.78;98680.00;5050805;28;20028;-52
2021/12/01 10:11:19;;;;;;;2.47;2.28;;;;;;;4.56;81.58;98653.00;5063334;28;20029;-52
2021/12/01 10:13:49;;;;;;;1.85;1.75;;;;;;;4.58;81.68;98640.81;5068310;28;20025;-51
2021/12/01 10:16:16;;;;;;;2.00;1.88;;;;;;;4.59;81.38;98642.53;5064579;28;20020;-52
2021/12/01 10:18:51;;;;;;;1.83;1.73;;;;;;;4.59;81.46;98632.06;5044039;28;20045;-51
2021/12/01 10:21:20;;;;;;;2.03;1.92;;;;;;;4.60;81.83;98625.97;5061384;28;20048;-52
2021/12/01 10:23:54;;;;;;;2.10;1.90;;;;;;;4.60;81.11;98612.03;5061212;28;20032;-51
2021/12/01 10:26:29;;;;;;;2.13;1.92;;;;;;;4.60;81.77;98607.69;5064924;28;20033;-52
2021/12/01 10:28:57;;;;;;;2.42;1.77;;;;;;;4.60;81.66;98606.81;5047013;28;20399;-52
2021/12/01 10:31:30;;;;;;;2.22;2.03;;;;;;;4.61;81.46;98619.00;5061448;28;20118;-52
2021/12/01 10:34:30;;;;;;;2.22;2.03;;;;;;;4.62;82.47;98605.03;5043294;28;20033;-52
2021/12/01 10:37:15;;;;;;;2.50;2.30;;;;;;;4.61;81.31;98608.56;5062795;28;20065;-51
2021/12/01 10:39:44;;;;;;;2.22;1.85;;;;;;;4.61;81.89;98609.38;5057982;28;20112;-51
2021/12/01 10:42:12;;;;;;;1.98;1.88;;;;;;;4.64;81.72;98603.28;5049540;28;20055;-49
2021/12/01 10:44:37;;;;;;;1.80;1.70;;;;;;;4.63;82.05;98604.16;5064925;28;20020;-51
2021/12/01 10:47:11;;;;;;;2.65;2.08;;;;;;;4.64;81.80;98608.50;5066562;28;20039;-51
2021/12/01 10:49:43;;;;;;;1.98;1.85;;;;;;;4.64;81.43;98603.28;5025266;28;20126;-52
2021/12/01 10:52:29;;;;;;;2.13;1.92;;;;;;;4.63;82.33;98601.53;5060569;28;20641;-52
2021/12/01 10:55:13;;;;;;;2.20;2.00;;;;;;;4.65;81.54;98594.53;5064393;28;20027;-52
2021/12/01 10:57:54;;;;;;;1.95;1.77;;;;;;;4.64;81.96;98598.06;5048165;28;20105;-52
2021/12/01 11:00:22;;;;;;;2.05;1.85;;;;;;;4.63;81.45;98591.09;5059972;28;20037;-52
2021/12/01 11:02:48;;;;;;;2.22;1.90;;;;;;;4.64;81.27;98577.16;5055455;28;20507;-52
2021/12/01 11:05:31;;;;;;;2.00;1.90;;;;;;;4.64;81.90;98582.38;5063930;28;20037;-52
2021/12/01 11:08:12;;;;;;;1.77;1.65;;;;;;;4.65;82.00;98557.13;5042125;28;20055;-51
2021/12/01 11:10:37;;;;;;;2.38;1.95;;;;;;;4.65;82.53;98552.78;5066215;28;20021;-51
2021/12/01 11:13:03;;;;;;;1.88;1.77;;;;;;;4.66;81.61;98544.03;5048915;28;20436;-51
2021/12/01 11:15:37;;;;;;;1.92;1.73;;;;;;;4.65;81.25;98537.09;5062973;28;20052;-51
2021/12/01 11:18:04;;;;;;;2.10;1.80;;;;;;;4.66;81.66;98538.81;5055476;28;20546;-52
2021/12/01 11:20:48;;;;;;;2.28;2.10;;;;;;;4.67;82.26;98540.53;5062197;28;20112;-52
2021/12/01 11:23:17;;;;;;;1.90;1.80;;;;;;;4.67;81.82;98535.31;5063005;28;20094;-51
2021/12/01 11:25:52;;;;;;;1.83;1.73;;;;;;;4.66;81.64;98517.91;5039868;28;20090;-49
2021/12/01 11:28:19;;;;;;;2.47;2.28;;;;;;;4.68;81.09;98520.50;5032432;28;20032;-51
2021/12/01 11:30:47;;;;;;;1.90;1.80;;;;;;;4.69;81.95;98512.66;5068779;28;20086;-51
2021/12/01 11:33:16;;;;;;;3.58;1.70;;;;;;;4.69;81.79;98515.25;5045015;28;20064;-52
2021/12/01 11:35:43;;;;;;;1.98;1.88;;;;;;;4.70;80.95;98498.69;5062030;28;20035;-52
2021/12/01 11:38:09;;;;;;;2.33;2.17;;;;;;;4.69;81.64;98494.38;5036719;28;20102;-53
2021/12/01 11:40:35;;;;;;;1.80;1.70;;;;;;;4.71;81.33;98489.13;5040744;28;20492;-53
2021/12/01 11:43:00;;;;;;;1.73;1.63;;;;;;;4.71;81.25;98484.72;5037038;28;20029;-53
2021/12/01 11:45:25;;;;;;;1.60;1.50;;;;;;;4.72;81.47;98481.25;5049850;28;20029;-53
2021/12/01 11:47:53;;;;;;;1.95;1.85;;;;;;;4.71;81.86;98473.44;5055578;28;20063;-53